createdAt,value
2023-04-26T00:19:39.400Z,9.95
2023-04-26T01:19:39.366Z,9.92
2023-04-26T01:39:39.400Z,9.9
2023-04-26T01:59:39.398Z,9.88
2023-04-26T02:19:39.402Z,9.86
2023-04-26T02:39:39.407Z,9.85
2023-04-26T03:19:39.407Z,9.83
2023-04-26T03:39:39.416Z,9.81
2023-04-26T03:59:39.426Z,9.78
2023-04-26T04:19:39.408Z,9.76
2023-04-26T04:39:39.415Z,9.75
2023-04-26T04:59:39.404Z,9.74
2023-04-26T05:19:39.426Z,9.72
2023-04-26T05:39:39.479Z,9.7
2023-04-26T05:59:39.425Z,9.67
2023-04-26T06:19:39.414Z,9.65
2023-04-26T06:39:39.385Z,9.64
2023-04-26T06:59:39.113Z,9.62
2023-04-26T07:19:39.385Z,9.6
2023-04-26T07:39:39.369Z,9.56
2023-04-26T07:59:39.338Z,9.54
2023-04-26T08:19:39.359Z,9.53
2023-04-26T08:39:39.314Z,9.52
2023-04-26T08:59:39.297Z,9.5
2023-04-26T09:19:39.266Z,9.48
2023-04-26T09:39:39.283Z,9.45
2023-04-26T09:59:39.220Z,9.43
2023-04-26T10:19:39.232Z,9.43
2023-04-26T10:39:39.202Z,9.42
2023-04-26T10:59:47.438Z,9.41
2023-04-26T11:19:39.113Z,9.39
2023-04-26T11:39:38.475Z,9.38
2023-04-26T11:59:39.095Z,9.36
2023-04-26T12:19:39.102Z,9.35
2023-04-26T12:39:38.766Z,9.35
2023-04-26T12:59:39.013Z,9.34
2023-04-26T13:19:38.988Z,9.34
2023-04-26T13:39:38.954Z,9.34
2023-04-26T14:19:38.909Z,9.34
2023-04-26T14:39:38.884Z,9.34
2023-04-26T14:59:38.854Z,9.34
2023-04-26T15:19:38.563Z,9.34
2023-04-26T15:39:38.795Z,9.35
2023-04-26T15:59:38.770Z,9.35
2023-04-26T16:19:38.745Z,9.36
2023-04-26T16:39:38.731Z,9.37
2023-04-26T16:59:38.702Z,9.38
2023-04-26T17:19:38.646Z,9.39
2023-04-26T17:39:38.660Z,9.4
2023-04-26T17:59:38.670Z,9.41
2023-04-26T18:19:38.604Z,9.42
2023-04-26T18:39:38.619Z,9.42
2023-04-26T18:59:38.592Z,9.43
2023-04-26T19:19:38.568Z,9.43
2023-04-26T19:39:38.583Z,9.43
2023-04-26T19:59:38.587Z,9.44
2023-04-26T20:19:38.607Z,9.44
2023-04-26T20:39:38.526Z,9.45
2023-04-26T21:19:38.503Z,9.46
2023-04-26T21:39:38.502Z,9.46
2023-04-26T21:59:38.465Z,9.46
2023-04-26T22:19:38.441Z,9.47
2023-04-26T22:39:38.179Z,9.47
2023-04-26T23:19:38.489Z,9.47
2023-04-26T23:39:38.496Z,9.47
2023-04-26T23:59:38.454Z,9.46
